createdAt,value
2022-11-03T00:00:02.656Z,1011.8
2022-11-03T00:15:03.241Z,1011.7
2022-11-03T00:30:02.510Z,1011.5
2022-11-03T00:45:02.980Z,1011.3
2022-11-03T01:00:02.401Z,1011.2
2022-11-03T01:15:02.831Z,1011.2
2022-11-03T01:30:02.272Z,1011.3
2022-11-03T01:45:02.703Z,1011.0
2022-11-03T02:00:03.245Z,1010.7
2022-11-03T02:15:02.576Z,1010.3
2022-11-03T02:30:03.179Z,1010.1
2022-11-03T02:45:02.454Z,1010.1
2022-11-03T03:00:02.914Z,1009.8
2022-11-03T03:15:02.343Z,1009.6
2022-11-03T03:30:02.779Z,1009.5
2022-11-03T03:45:03.289Z,1009.4
2022-11-03T04:00:02.642Z,1009.4
2022-11-03T04:15:03.294Z,1009.2
2022-11-03T04:30:02.506Z,1009.0
2022-11-03T04:45:02.965Z,1008.9
2022-11-03T05:00:02.394Z,1008.7
2022-11-03T05:15:02.844Z,1008.4
2022-11-03T05:30:02.301Z,1008.2
2022-11-03T05:45:02.696Z,1008.1
2022-11-03T06:00:03.313Z,1007.9
2022-11-03T06:15:02.604Z,1007.7
2022-11-03T06:30:03.225Z,1007.8
2022-11-03T06:45:02.487Z,1007.6
2022-11-03T07:00:20.487Z,1007.5
2022-11-03T07:30:02.792Z,1007.3
2022-11-03T07:45:03.318Z,1007.2
2022-11-03T08:00:05.470Z,1007.0
2022-11-03T08:15:02.336Z,1006.7
2022-11-03T08:30:02.552Z,1006.6
2022-11-03T08:45:03.014Z,1006.4
2022-11-03T09:00:02.445Z,1006.2
2022-11-03T09:15:02.907Z,1006.0
2022-11-03T09:30:13.296Z,1005.8
2022-11-03T09:45:02.776Z,1005.8
2022-11-03T10:00:03.359Z,1005.5
2022-11-03T10:15:02.651Z,1005.3
2022-11-03T10:30:03.101Z,1005.1
2022-11-03T10:45:02.523Z,1004.7
2022-11-03T11:00:02.955Z,1004.3
2022-11-03T11:15:02.405Z,1004.0
2022-11-03T11:30:02.839Z,1003.9
2022-11-03T11:45:03.419Z,1003.6
2022-11-03T12:00:02.752Z,1003.2
2022-11-03T12:15:03.385Z,1003.0
2022-11-03T12:30:02.581Z,1002.8
2022-11-03T12:45:03.021Z,1002.5
2022-11-03T13:00:02.442Z,1002.1
2022-11-03T13:15:02.917Z,1001.9
2022-11-03T13:30:02.400Z,1001.4
2022-11-03T13:45:02.825Z,1000.9
2022-11-03T14:00:05.057Z,1000.7
2022-11-03T14:15:02.683Z,1000.3
2022-11-03T14:30:03.123Z,999.6
2022-11-03T14:45:02.593Z,999.5
2022-11-03T15:00:03.001Z,999.3
2022-11-03T15:15:02.426Z,998.9
2022-11-03T15:30:02.968Z,998.4
2022-11-03T15:45:02.452Z,998.5
2022-11-03T16:00:02.840Z,998.4
2022-11-03T16:15:02.408Z,998.1
2022-11-03T16:30:02.630Z,998.0
2022-11-03T16:45:03.073Z,998.2
2022-11-03T17:00:02.533Z,997.9
2022-11-03T17:15:02.959Z,997.7
2022-11-03T17:30:02.442Z,997.4
2022-11-03T17:45:02.835Z,997.3
2022-11-03T18:00:03.456Z,997.1
2022-11-03T18:15:02.712Z,997.1
2022-11-03T18:30:03.163Z,996.9
2022-11-03T18:45:03.193Z,996.7
2022-11-03T19:00:03.031Z,996.4
2022-11-03T19:15:02.466Z,996.1
2022-11-03T19:30:02.889Z,995.9
2022-11-03T19:45:02.463Z,995.6
2022-11-03T20:00:02.757Z,995.6
2022-11-03T20:15:03.226Z,995.5
2022-11-03T20:30:02.651Z,995.7
2022-11-03T20:45:03.089Z,995.5
2022-11-03T21:00:02.535Z,995.5
2022-11-03T21:15:02.970Z,995.4
2022-11-03T21:30:02.498Z,995.1
2022-11-03T21:45:02.904Z,995.2
2022-11-03T22:00:02.615Z,995.0
2022-11-03T22:15:02.734Z,994.9
2022-11-03T22:30:02.150Z,994.8
2022-11-03T22:45:02.671Z,994.9
2022-11-03T23:00:03.030Z,995.0
2022-11-03T23:30:02.904Z,994.9
2022-11-03T23:45:02.520Z,994.7
